Marfa's Hourly Summary for Thursday, August 27, 2026
Hour Temp
(f)
RH
(%)
Solar Rad.
(MJ/m2)
Rainfall
(in)
Wind
(mph)
Battery
(volts)
8/27/2026 12:00 AM 82 36 0 0 2.31 0
8/27/2026 1:00 AM 81 38 0 0 1.63 0
8/27/2026 2:00 AM 79 40 0 0 3.9 0
8/27/2026 3:00 AM 80 40 0 0 1.22 0
8/27/2026 4:00 AM 74 46 0 0 3.43 0
8/27/2026 5:00 AM 73 51 0 0 5.82 0
8/27/2026 6:00 AM 73 50 0 0 1.9 0
8/27/2026 7:00 AM 74 52 0 0 9.56 0
8/27/2026 8:00 AM 72 56 0.02 0 5.8 0
8/27/2026 9:00 AM 75 50 0.12 0 4.12 0
8/27/2026 10:00 AM 78 46 0.17 0 6.19 0
8/27/2026 11:00 AM 82 39 0.2 0 3.02 0
8/27/2026 12:00 PM 89 30 0.69 0 2.94 0
8/27/2026 1:00 PM 90 25 0.25 0 5.2 0
8/27/2026 2:00 PM 88 26 0.26 0 5.05 0
8/27/2026 3:00 PM 91 24 0.87 0 9.98 0
8/27/2026 4:00 PM 92 27 0.71 0 10.66 0
8/27/2026 5:00 PM 91 26 0.59 0 12.61 0
8/27/2026 6:00 PM 91 25 0.38 0 7.27 0
8/27/2026 7:00 PM 91 24 0.25 0 3.69 0
8/27/2026 8:00 PM 85 25 0.02 0 3.46 0
8/27/2026 9:00 PM 83 33 0 0 6.31 0
8/27/2026 10:00 PM 80 36 0 0 5.07 0
8/27/2026 11:00 PM 79 40 0 0 2.02 0
Data Summary 82 36 4.53 0.00 5.13 0.00